createdAt,value
2022-10-10T00:00:19.112Z,16.19
2022-10-10T00:02:46.586Z,16.13
2022-10-10T00:05:14.014Z,16.17
2022-10-10T00:07:41.464Z,16.15
2022-10-10T00:10:10.636Z,16.14
2022-10-10T00:12:38.127Z,16.14
2022-10-10T00:15:06.112Z,16.11
2022-10-10T00:17:33.536Z,16.11
2022-10-10T00:20:00.991Z,16.09
2022-10-10T00:22:28.425Z,16.06
2022-10-10T00:24:55.869Z,16.06
2022-10-10T00:27:24.623Z,16.06
2022-10-10T00:29:52.168Z,16.06
2022-10-10T00:32:19.609Z,16.09
2022-10-10T00:34:47.031Z,16.07
2022-10-10T00:37:14.459Z,16.07
2022-10-10T00:39:41.889Z,16.03
2022-10-10T00:42:11.597Z,16.00
2022-10-10T00:44:41.438Z,15.84
2022-10-10T00:47:09.077Z,16.00
2022-10-10T00:49:36.958Z,15.98
2022-10-10T00:52:04.487Z,15.91
2022-10-10T00:54:32.282Z,15.99
2022-10-10T00:57:01.423Z,16.00
2022-10-10T00:59:29.010Z,15.60
2022-10-10T01:01:57.965Z,15.62
2022-10-10T01:04:30.603Z,15.93
2022-10-10T01:06:58.071Z,15.88
2022-10-10T01:09:25.503Z,15.94
2022-10-10T01:11:53.959Z,15.95
2022-10-10T01:14:27.835Z,15.94
2022-10-10T01:16:59.505Z,15.92
2022-10-10T01:19:51.586Z,15.90
2022-10-10T01:22:23.766Z,15.91
2022-10-10T01:24:56.770Z,15.81
2022-10-10T01:27:31.708Z,15.93
2022-10-10T01:30:02.486Z,15.90
2022-10-10T01:32:32.829Z,15.89
2022-10-10T01:35:09.437Z,15.89
2022-10-10T01:37:41.680Z,15.87
2022-10-10T01:40:12.402Z,15.88
2022-10-10T01:42:42.683Z,15.85
2022-10-10T01:45:11.600Z,15.86
2022-10-10T01:47:39.573Z,15.85
2022-10-10T01:50:08.626Z,15.61
2022-10-10T01:52:41.047Z,15.84
2022-10-10T01:55:29.868Z,15.38
2022-10-10T01:58:03.685Z,15.84
2022-10-10T02:00:32.949Z,15.82
2022-10-10T02:03:03.175Z,15.80
2022-10-10T02:05:33.505Z,15.77
2022-10-10T02:08:02.345Z,15.74
2022-10-10T02:10:31.862Z,15.48
2022-10-10T02:13:00.816Z,15.70
2022-10-10T02:15:30.092Z,15.20
2022-10-10T02:17:58.898Z,15.65
2022-10-10T02:20:27.633Z,15.67
2022-10-10T02:22:55.242Z,15.41
2022-10-10T02:25:24.557Z,15.62
2022-10-10T02:27:57.794Z,15.57
2022-10-10T02:30:25.223Z,15.41
2022-10-10T02:32:54.072Z,15.56
2022-10-10T02:35:24.329Z,15.17
2022-10-10T02:37:51.590Z,15.52
2022-10-10T02:40:21.503Z,15.51
2022-10-10T02:42:49.368Z,15.53
2022-10-10T02:45:17.003Z,15.22
2022-10-10T02:47:45.299Z,15.52
2022-10-10T02:50:12.843Z,15.51
2022-10-10T02:52:41.810Z,15.46
2022-10-10T02:55:09.450Z,15.47
2022-10-10T02:57:36.929Z,15.48
2022-10-10T03:00:04.674Z,15.48
2022-10-10T03:02:32.123Z,15.42
2022-10-10T03:04:59.602Z,15.46
2022-10-10T03:07:27.131Z,15.41
2022-10-10T03:09:56.039Z,15.38
2022-10-10T03:12:23.452Z,15.34
2022-10-10T03:14:50.898Z,15.40
2022-10-10T03:17:18.324Z,15.38
2022-10-10T03:19:45.779Z,15.41
2022-10-10T03:22:13.217Z,15.36
2022-10-10T03:24:40.706Z,15.34
2022-10-10T03:27:09.452Z,15.33
2022-10-10T03:29:36.905Z,15.35
2022-10-10T03:32:06.920Z,15.42
2022-10-10T03:34:37.684Z,15.37
2022-10-10T03:37:05.113Z,15.28
2022-10-10T03:39:32.608Z,15.30
2022-10-10T03:42:00.062Z,15.32
2022-10-10T03:44:28.837Z,15.28
2022-10-10T03:46:56.280Z,15.25
2022-10-10T03:49:23.762Z,15.22
2022-10-10T03:51:51.278Z,15.27
2022-10-10T03:54:18.734Z,15.27
2022-10-10T03:56:46.231Z,15.26
2022-10-10T03:59:13.681Z,15.22
2022-10-10T04:01:42.487Z,15.17
2022-10-10T04:04:09.979Z,15.16
2022-10-10T04:06:37.422Z,15.18
2022-10-10T04:09:05.203Z,15.16
2022-10-10T04:11:32.651Z,15.15
2022-10-10T04:14:00.091Z,15.13
2022-10-10T04:16:27.539Z,15.12
2022-10-10T04:18:56.328Z,15.13
2022-10-10T04:21:23.762Z,15.19
2022-10-10T04:23:51.216Z,15.21
2022-10-10T04:26:18.668Z,15.21
2022-10-10T04:28:46.497Z,15.18
2022-10-10T04:31:14.043Z,14.87
2022-10-10T04:33:41.486Z,15.08
2022-10-10T04:36:10.288Z,15.06
2022-10-10T04:38:37.738Z,15.13
2022-10-10T04:41:05.349Z,15.07
2022-10-10T04:43:32.807Z,15.02
2022-10-10T04:46:00.254Z,15.02
2022-10-10T04:48:27.748Z,15.02
2022-10-10T04:50:55.429Z,14.99
2022-10-10T04:53:24.221Z,15.02
2022-10-10T04:55:51.661Z,15.00
2022-10-10T04:58:19.146Z,14.99
2022-10-10T05:00:46.658Z,14.97
2022-10-10T05:03:14.094Z,14.94
2022-10-10T05:05:41.556Z,14.94
2022-10-10T05:08:09.011Z,14.94
2022-10-10T05:10:38.727Z,14.92
2022-10-10T05:13:06.210Z,14.57
2022-10-10T05:15:35.174Z,14.93
2022-10-10T05:18:02.633Z,14.91
2022-10-10T05:20:30.098Z,14.92
2022-10-10T05:22:57.540Z,14.92
2022-10-10T05:25:25.018Z,13.97
2022-10-10T05:27:53.774Z,14.90
2022-10-10T05:30:21.281Z,14.91
2022-10-10T05:32:48.976Z,14.94
2022-10-10T05:35:17.455Z,14.90
2022-10-10T05:37:44.905Z,14.95
2022-10-10T05:40:12.625Z,14.93
2022-10-10T05:42:40.054Z,15.01
2022-10-10T05:45:10.029Z,14.67
2022-10-10T05:47:37.445Z,15.00
2022-10-10T05:50:05.383Z,15.00
2022-10-10T05:52:32.990Z,15.01
2022-10-10T05:55:00.440Z,15.00
2022-10-10T05:57:27.869Z,15.01
2022-10-10T05:59:55.298Z,14.98
2022-10-10T06:02:24.100Z,14.96
2022-10-10T06:04:51.580Z,15.00
2022-10-10T06:07:19.050Z,15.07
2022-10-10T06:09:46.802Z,15.07
2022-10-10T06:12:14.233Z,15.05
2022-10-10T06:14:41.886Z,15.03
2022-10-10T06:17:09.327Z,15.01
2022-10-10T06:19:38.092Z,15.07
2022-10-10T06:22:05.524Z,15.12
2022-10-10T06:24:33.113Z,15.20
2022-10-10T06:27:00.578Z,15.24
2022-10-10T06:29:28.106Z,15.32
2022-10-10T06:31:55.617Z,15.41
2022-10-10T06:34:23.054Z,15.49
2022-10-10T06:36:51.949Z,15.58
2022-10-10T06:39:19.600Z,15.48
2022-10-10T06:41:47.049Z,15.70
2022-10-10T06:44:14.486Z,15.76
2022-10-10T06:46:41.950Z,15.81
2022-10-10T06:49:09.397Z,15.84
2022-10-10T06:51:37.970Z,15.89
2022-10-10T06:54:06.873Z,15.94
2022-10-10T06:56:35.323Z,15.98
2022-10-10T06:59:02.785Z,16.01
2022-10-10T07:01:30.406Z,16.05
2022-10-10T07:03:57.943Z,16.12
2022-10-10T07:06:25.407Z,16.16
2022-10-10T07:08:52.851Z,16.23
2022-10-10T07:11:22.414Z,16.28
2022-10-10T07:13:50.986Z,16.36
2022-10-10T07:16:18.420Z,16.42
2022-10-10T07:18:45.866Z,16.53
2022-10-10T07:21:13.297Z,16.57
2022-10-10T07:23:40.785Z,16.66
2022-10-10T07:26:10.689Z,16.32
2022-10-10T07:28:39.582Z,16.57
2022-10-10T07:31:08.471Z,16.49
2022-10-10T07:33:36.680Z,16.71
2022-10-10T07:36:04.149Z,16.81
2022-10-10T07:38:31.596Z,16.89
2022-10-10T07:40:59.031Z,16.92
2022-10-10T07:43:26.574Z,16.90
2022-10-10T07:45:55.360Z,16.97
2022-10-10T07:48:22.809Z,16.98
2022-10-10T07:50:50.246Z,17.03
2022-10-10T07:53:17.686Z,17.06
2022-10-10T07:55:45.107Z,17.09
2022-10-10T07:58:12.584Z,17.13
2022-10-10T08:00:41.765Z,17.14
2022-10-10T08:03:12.057Z,16.69
2022-10-10T08:05:41.014Z,17.20
2022-10-10T08:08:08.514Z,17.22
2022-10-10T08:10:36.000Z,17.25
2022-10-10T08:13:03.433Z,16.89
2022-10-10T08:15:33.818Z,17.38
2022-10-10T08:18:01.640Z,17.45
2022-10-10T08:20:30.421Z,17.46
2022-10-10T08:22:57.851Z,17.42
2022-10-10T08:25:25.309Z,17.41
2022-10-10T08:27:52.737Z,17.37
2022-10-10T08:30:20.178Z,17.32
2022-10-10T08:32:47.607Z,16.87
2022-10-10T08:35:15.212Z,17.28
2022-10-10T08:37:43.961Z,17.28
2022-10-10T08:40:11.554Z,17.30
2022-10-10T08:42:46.978Z,17.32
2022-10-10T08:45:17.485Z,17.30
2022-10-10T08:47:46.834Z,17.32
2022-10-10T08:50:17.063Z,17.32
2022-10-10T08:52:48.763Z,17.35
2022-10-10T08:55:18.006Z,17.36
2022-10-10T08:57:49.385Z,17.37
2022-10-10T09:00:18.414Z,17.10
2022-10-10T09:02:56.327Z,17.38
2022-10-10T09:05:31.119Z,17.18
2022-10-10T09:08:14.938Z,17.50
2022-10-10T09:10:46.666Z,17.55
2022-10-10T09:13:19.974Z,17.46
2022-10-10T09:15:52.827Z,17.66
2022-10-10T09:18:23.317Z,17.74
2022-10-10T09:20:53.310Z,17.85
2022-10-10T09:23:23.017Z,17.79
2022-10-10T09:25:53.590Z,17.95
2022-10-10T09:28:23.016Z,17.97
2022-10-10T09:30:51.962Z,17.94
2022-10-10T09:33:24.696Z,17.90
2022-10-10T09:35:52.137Z,18.07
2022-10-10T09:38:32.142Z,18.00
2022-10-10T09:41:00.929Z,17.84
2022-10-10T09:43:31.074Z,18.19
2022-10-10T09:45:58.484Z,18.25
2022-10-10T09:48:28.561Z,18.23
2022-10-10T09:50:56.171Z,18.38
2022-10-10T09:53:25.225Z,18.07
2022-10-10T09:55:53.606Z,18.42
2022-10-10T09:58:24.858Z,18.51
2022-10-10T10:00:53.691Z,18.53
2022-10-10T10:03:21.822Z,18.55
2022-10-10T10:05:55.981Z,18.60
2022-10-10T10:10:48.042Z,18.62
2022-10-10T10:13:15.566Z,18.63
2022-10-10T10:15:48.481Z,18.63
2022-10-10T10:18:24.869Z,18.65
2022-10-10T10:20:52.761Z,18.75
2022-10-10T10:23:24.522Z,18.31
2022-10-10T10:26:00.876Z,18.25
2022-10-10T10:28:28.986Z,18.26
2022-10-10T10:30:57.689Z,18.38
2022-10-10T10:33:39.308Z,18.40
2022-10-10T10:36:12.798Z,18.34
2022-10-10T10:38:43.192Z,18.32
2022-10-10T10:41:15.065Z,18.31
2022-10-10T10:43:55.958Z,18.29
2022-10-10T10:46:30.842Z,18.26
2022-10-10T10:49:01.995Z,18.03
2022-10-10T10:51:49.069Z,18.22
2022-10-10T10:54:24.690Z,18.20
2022-10-10T10:56:58.878Z,18.19
2022-10-10T11:00:25.877Z,18.20
2022-10-10T11:02:54.694Z,17.90
2022-10-10T11:05:41.659Z,18.19
2022-10-10T11:08:36.718Z,18.20
2022-10-10T11:11:10.874Z,18.17
2022-10-10T11:13:41.318Z,18.15
2022-10-10T11:16:36.350Z,17.99
2022-10-10T11:19:06.321Z,17.93
2022-10-10T11:21:34.006Z,18.13
2022-10-10T11:24:03.312Z,18.12
2022-10-10T11:26:31.619Z,17.95
2022-10-10T11:29:01.627Z,18.12
2022-10-10T11:31:29.342Z,18.11
2022-10-10T11:33:58.618Z,17.63
2022-10-10T11:36:26.854Z,18.12
2022-10-10T11:38:55.750Z,18.14
2022-10-10T11:41:23.858Z,18.16
2022-10-10T11:43:52.716Z,18.14
2022-10-10T11:46:26.269Z,17.85
2022-10-10T11:48:58.057Z,17.82
2022-10-10T11:51:32.165Z,18.17
2022-10-10T11:54:01.124Z,18.14
2022-10-10T11:56:31.134Z,17.79
2022-10-10T11:59:00.985Z,18.16
2022-10-10T12:01:30.516Z,18.14
2022-10-10T12:03:58.164Z,18.13
2022-10-10T12:06:26.644Z,18.18
2022-10-10T12:08:58.374Z,18.21
2022-10-10T12:11:27.613Z,18.24
2022-10-10T12:13:55.831Z,18.29
2022-10-10T12:16:29.553Z,18.63
2022-10-10T12:19:01.832Z,18.61
2022-10-10T12:21:30.162Z,18.47
2022-10-10T12:24:02.053Z,18.64
2022-10-10T12:27:03.073Z,18.72
2022-10-10T12:29:41.032Z,18.64
2022-10-10T12:32:24.172Z,18.62
2022-10-10T12:34:59.566Z,18.77
2022-10-10T12:37:27.369Z,18.82
2022-10-10T12:40:03.054Z,18.85
2022-10-10T12:42:32.006Z,18.68
2022-10-10T12:44:59.553Z,18.81
2022-10-10T12:47:52.761Z,18.88
2022-10-10T12:50:22.949Z,18.87
2022-10-10T12:52:51.853Z,18.98
2022-10-10T12:55:21.302Z,18.86
2022-10-10T12:57:49.212Z,18.99
2022-10-10T13:00:18.105Z,18.65
2022-10-10T13:02:47.226Z,19.04
2022-10-10T13:05:16.061Z,18.80
2022-10-10T13:07:45.589Z,19.14
2022-10-10T13:10:22.166Z,18.93
2022-10-10T13:12:59.335Z,19.27
2022-10-10T13:15:26.924Z,19.37
2022-10-10T13:17:54.391Z,19.38
2022-10-10T13:20:28.626Z,19.42
2022-10-10T13:22:57.816Z,19.47
2022-10-10T13:25:25.268Z,19.54
2022-10-10T13:27:52.710Z,19.44
2022-10-10T13:30:20.476Z,19.35
2022-10-10T13:32:47.924Z,19.02
2022-10-10T13:35:16.297Z,19.28
2022-10-10T13:37:43.795Z,19.22
2022-10-10T13:40:15.711Z,19.18
2022-10-10T13:42:43.183Z,19.15
2022-10-10T13:45:31.443Z,19.13
2022-10-10T13:48:12.360Z,19.08
2022-10-10T13:50:53.684Z,19.06
2022-10-10T13:53:25.808Z,18.76
2022-10-10T13:55:58.708Z,19.00
2022-10-10T13:58:26.269Z,18.97
2022-10-10T14:00:57.096Z,18.95
2022-10-10T14:03:24.557Z,18.90
2022-10-10T14:05:51.982Z,18.57
2022-10-10T14:08:20.441Z,18.87
2022-10-10T14:10:58.586Z,18.87
2022-10-10T14:13:26.086Z,18.83
2022-10-10T14:15:54.363Z,18.81
2022-10-10T14:18:22.692Z,18.59
2022-10-10T14:20:50.395Z,18.76
2022-10-10T14:23:17.858Z,18.41
2022-10-10T14:25:46.564Z,18.76
2022-10-10T14:28:15.825Z,18.74
2022-10-10T14:30:43.326Z,18.73
2022-10-10T14:33:11.859Z,18.74
2022-10-10T14:35:39.579Z,18.75
2022-10-10T14:38:07.017Z,18.75
2022-10-10T14:40:34.634Z,18.68
2022-10-10T14:43:02.083Z,18.73
2022-10-10T14:45:30.847Z,18.71
2022-10-10T14:47:58.272Z,18.70
2022-10-10T14:50:26.881Z,18.60
2022-10-10T14:52:54.484Z,18.68
2022-10-10T14:55:21.933Z,18.66
2022-10-10T14:57:49.377Z,18.65
2022-10-10T15:00:18.417Z,18.64
2022-10-10T15:02:47.273Z,18.63
2022-10-10T15:05:14.922Z,18.60
2022-10-10T15:07:42.353Z,18.59
2022-10-10T15:10:32.728Z,18.57
2022-10-10T15:12:58.095Z,18.54
2022-10-10T15:15:25.534Z,18.49
2022-10-10T15:17:54.302Z,18.52
2022-10-10T15:20:25.453Z,18.50
2022-10-10T15:22:52.903Z,18.47
2022-10-10T15:25:20.435Z,18.31
2022-10-10T15:27:48.135Z,18.45
2022-10-10T15:30:15.584Z,18.42
2022-10-10T15:32:43.022Z,18.06
2022-10-10T15:35:14.344Z,18.42
2022-10-10T15:37:41.773Z,18.42
2022-10-10T15:40:10.132Z,18.43
2022-10-10T15:42:37.566Z,18.40
2022-10-10T15:45:05.356Z,18.40
2022-10-10T15:47:33.124Z,18.39
2022-10-10T15:50:00.879Z,18.38
2022-10-10T15:52:29.692Z,18.37
2022-10-10T15:54:57.129Z,18.36
2022-10-10T15:57:24.585Z,18.34
2022-10-10T15:59:52.025Z,18.34
2022-10-10T16:02:19.494Z,18.06
2022-10-10T16:04:46.949Z,18.31
2022-10-10T16:07:31.752Z,18.30
2022-10-10T16:10:03.329Z,18.28
2022-10-10T16:12:30.762Z,18.26
2022-10-10T16:14:59.053Z,18.25
2022-10-10T16:17:28.657Z,18.24
2022-10-10T16:19:56.130Z,18.23
2022-10-10T16:22:23.589Z,18.21
2022-10-10T16:25:10.317Z,18.21
2022-10-10T16:27:39.845Z,18.19
2022-10-10T16:30:08.630Z,18.18
2022-10-10T16:32:41.770Z,17.94
2022-10-10T16:35:10.534Z,18.15
2022-10-10T16:37:38.330Z,18.14
2022-10-10T16:40:07.164Z,18.13
2022-10-10T16:42:35.356Z,18.08
2022-10-10T16:45:04.610Z,18.09
2022-10-10T16:47:32.056Z,18.08
2022-10-10T16:49:59.486Z,18.09
2022-10-10T16:52:27.005Z,18.07
2022-10-10T16:54:54.468Z,18.06
2022-10-10T16:57:21.930Z,18.06
2022-10-10T16:59:49.360Z,18.05
2022-10-10T17:02:18.126Z,18.01
2022-10-10T17:04:45.576Z,18.04
2022-10-10T17:07:13.019Z,18.03
2022-10-10T17:09:40.573Z,18.02
2022-10-10T17:12:08.040Z,17.98
2022-10-10T17:14:35.486Z,18.00
2022-10-10T17:17:18.230Z,18.00
2022-10-10T17:19:49.019Z,17.98
2022-10-10T17:22:16.608Z,17.98
2022-10-10T17:24:44.046Z,17.98
2022-10-10T17:27:11.635Z,17.90
2022-10-10T17:29:39.065Z,17.96
2022-10-10T17:32:06.950Z,17.96
2022-10-10T17:34:34.959Z,17.96
2022-10-10T17:37:03.860Z,17.95
2022-10-10T17:39:31.764Z,17.80
2022-10-10T17:41:59.840Z,17.94
2022-10-10T17:44:27.331Z,17.93
2022-10-10T17:46:54.762Z,17.92
2022-10-10T17:49:22.214Z,17.92
2022-10-10T17:51:49.697Z,17.91
2022-10-10T17:54:18.509Z,17.91
2022-10-10T17:56:45.986Z,17.89
2022-10-10T17:59:13.543Z,17.76
2022-10-10T18:01:41.125Z,17.88
2022-10-10T18:04:08.764Z,17.87
2022-10-10T18:06:37.042Z,17.88
2022-10-10T18:09:04.733Z,17.48
2022-10-10T18:11:33.526Z,17.86
2022-10-10T18:14:01.286Z,17.85
2022-10-10T18:16:29.908Z,17.84
2022-10-10T18:18:57.385Z,17.81
2022-10-10T18:21:24.847Z,17.84
2022-10-10T18:23:52.441Z,17.61
2022-10-10T18:26:20.892Z,17.83
2022-10-10T18:28:52.219Z,17.83
2022-10-10T18:31:21.423Z,17.82
2022-10-10T18:33:48.893Z,17.81
2022-10-10T18:36:17.408Z,17.77
2022-10-10T18:38:44.860Z,17.79
2022-10-10T18:41:13.264Z,17.78
2022-10-10T18:43:41.707Z,17.79
2022-10-10T18:46:11.335Z,17.45
2022-10-10T18:48:39.296Z,17.78
2022-10-10T18:51:07.716Z,17.78
2022-10-10T18:53:36.099Z,17.77
2022-10-10T18:56:03.675Z,17.77
2022-10-10T18:58:31.165Z,17.76
2022-10-10T19:00:59.457Z,17.18
2022-10-10T19:03:28.377Z,17.75
2022-10-10T19:05:55.825Z,17.71
2022-10-10T19:08:23.256Z,17.70
2022-10-10T19:10:51.078Z,17.74
2022-10-10T19:13:20.056Z,17.70
2022-10-10T19:15:49.863Z,17.42
2022-10-10T19:18:17.374Z,17.41
2022-10-10T19:20:46.187Z,17.73
2022-10-10T19:23:14.781Z,17.72
2022-10-10T19:25:42.409Z,17.65
2022-10-10T19:28:10.105Z,17.70
2022-10-10T19:30:38.912Z,17.69
2022-10-10T19:33:06.374Z,17.69
2022-10-10T19:35:36.301Z,17.69
2022-10-10T19:38:05.239Z,17.69
2022-10-10T19:40:32.691Z,17.68
2022-10-10T19:43:00.158Z,17.66
2022-10-10T19:45:27.708Z,17.66
2022-10-10T19:47:55.132Z,17.66
2022-10-10T19:50:22.584Z,17.66
2022-10-10T19:52:50.049Z,17.66
2022-10-10T19:55:19.853Z,17.65
2022-10-10T19:57:47.288Z,17.32
2022-10-10T20:00:15.700Z,17.65
2022-10-10T20:02:43.798Z,17.64
2022-10-10T20:05:11.287Z,17.62
2022-10-10T20:07:38.704Z,17.56
2022-10-10T20:10:06.861Z,17.62
2022-10-10T20:12:35.972Z,17.62
2022-10-10T20:15:03.470Z,17.57
2022-10-10T20:17:30.938Z,17.59
2022-10-10T20:19:58.487Z,17.59
2022-10-10T20:22:25.930Z,17.59
2022-10-10T20:24:53.449Z,17.57
2022-10-10T20:27:20.886Z,17.57
2022-10-10T20:29:49.672Z,17.57
2022-10-10T20:32:17.106Z,17.55
2022-10-10T20:34:44.565Z,17.55
2022-10-10T20:37:12.047Z,17.48
2022-10-10T20:39:39.602Z,17.55
2022-10-10T20:42:07.056Z,17.54
2022-10-10T20:44:34.689Z,17.53
2022-10-10T20:47:03.441Z,17.51
2022-10-10T20:49:30.898Z,17.51
2022-10-10T20:51:58.333Z,17.51
2022-10-10T20:54:25.809Z,17.50
2022-10-10T20:56:53.255Z,17.50
2022-10-10T20:59:21.077Z,17.20
2022-10-10T21:01:48.688Z,17.48
2022-10-10T21:04:17.579Z,17.48
2022-10-10T21:06:45.032Z,17.46
2022-10-10T21:09:13.699Z,17.36
2022-10-10T21:11:41.151Z,17.45
2022-10-10T21:14:08.696Z,17.14
2022-10-10T21:16:37.045Z,17.01
2022-10-10T21:19:04.850Z,17.41
2022-10-10T21:21:34.850Z,17.41
2022-10-10T21:24:03.589Z,17.40
2022-10-10T21:26:31.076Z,17.39
2022-10-10T21:28:58.662Z,17.39
2022-10-10T21:31:27.448Z,17.37
2022-10-10T21:33:54.983Z,17.37
2022-10-10T21:36:22.949Z,17.33
2022-10-10T21:38:51.718Z,17.36
2022-10-10T21:41:20.521Z,17.09
2022-10-10T21:43:48.689Z,17.09
2022-10-10T21:46:16.982Z,17.06
2022-10-10T21:48:44.564Z,17.29
2022-10-10T21:51:12.085Z,17.33
2022-10-10T21:53:39.530Z,17.32
2022-10-10T21:56:09.229Z,17.31
2022-10-10T21:58:37.416Z,17.31
2022-10-10T22:01:08.486Z,17.30
2022-10-10T22:03:35.989Z,17.28
2022-10-10T22:06:04.659Z,17.28
2022-10-10T22:08:32.353Z,17.27
2022-10-10T22:11:01.432Z,17.28
2022-10-10T22:13:30.195Z,17.25
2022-10-10T22:15:57.918Z,17.24
2022-10-10T22:18:25.439Z,16.99
2022-10-10T22:20:53.131Z,16.86
2022-10-10T22:23:20.780Z,17.22
2022-10-10T22:25:49.091Z,17.22
2022-10-10T22:28:16.788Z,17.20
2022-10-10T22:30:45.582Z,17.17
2022-10-10T22:33:13.007Z,17.19
2022-10-10T22:35:40.565Z,17.17
2022-10-10T22:38:08.024Z,17.18
2022-10-10T22:40:35.488Z,17.17
2022-10-10T22:43:02.991Z,17.14
2022-10-10T22:45:30.416Z,17.14
2022-10-10T22:47:59.156Z,17.13
2022-10-10T22:50:26.616Z,17.13
2022-10-10T22:52:54.061Z,16.98
2022-10-10T22:55:21.689Z,16.79
2022-10-10T22:57:49.143Z,17.13
2022-10-10T23:00:17.181Z,17.11
2022-10-10T23:02:44.601Z,17.10
2022-10-10T23:05:13.359Z,17.08
2022-10-10T23:07:40.803Z,17.07
2022-10-10T23:10:09.550Z,17.05
2022-10-10T23:12:38.050Z,17.06
2022-10-10T23:15:06.343Z,17.04
2022-10-10T23:17:33.791Z,17.03
2022-10-10T23:20:01.243Z,16.99
2022-10-10T23:22:29.998Z,17.02
2022-10-10T23:24:57.451Z,17.01
2022-10-10T23:27:24.891Z,17.02
2022-10-10T23:29:52.332Z,17.00
2022-10-10T23:32:19.784Z,16.99
2022-10-10T23:34:47.246Z,16.99
2022-10-10T23:37:14.686Z,16.99
2022-10-10T23:39:43.516Z,16.92
2022-10-10T23:42:10.948Z,16.96
2022-10-10T23:44:38.394Z,16.96
2022-10-10T23:47:05.891Z,16.88
2022-10-10T23:49:33.335Z,16.95
2022-10-10T23:52:00.753Z,16.95
2022-10-10T23:54:28.216Z,16.61
2022-10-10T23:56:56.980Z,16.90
2022-10-10T23:59:24.435Z,16.91
